createdAt,value
2022-12-16T00:01:18.732Z,95211.94
2022-12-16T00:03:49.145Z,95210.22
2022-12-16T00:06:20.167Z,95227.22
2022-12-16T00:08:48.037Z,95199.47
2022-12-16T00:11:17.353Z,95204.25
2022-12-16T00:13:45.166Z,95211.44
2022-12-16T00:16:15.280Z,95221.53
2022-12-16T00:18:43.719Z,95166.56
2022-12-16T00:21:12.012Z,95215.47
2022-12-16T00:23:41.897Z,95194.66
2022-12-16T00:26:10.529Z,95205.81
2022-12-16T00:28:40.736Z,95198.38
2022-12-16T00:31:08.709Z,95209.00
2022-12-16T00:33:36.953Z,95155.16
2022-12-16T00:36:05.518Z,95202.47
2022-12-16T00:38:33.407Z,95195.56
2022-12-16T00:41:01.540Z,95193.47
2022-12-16T00:43:29.506Z,95217.00
2022-12-16T00:45:58.954Z,95219.94
2022-12-16T00:48:26.814Z,95207.16
2022-12-16T00:50:55.794Z,95184.06
2022-12-16T00:53:25.687Z,95207.47
2022-12-16T00:55:53.893Z,95207.91
2022-12-16T00:58:21.767Z,95144.19
2022-12-16T01:00:49.678Z,95206.41
2022-12-16T01:03:22.005Z,95210.16
2022-12-16T01:05:50.244Z,95200.22
2022-12-16T01:08:18.444Z,95224.19
2022-12-16T01:10:52.084Z,95199.72
2022-12-16T01:13:20.730Z,95163.66
2022-12-16T01:15:49.930Z,95156.09
2022-12-16T01:18:18.791Z,95180.19
2022-12-16T01:20:48.043Z,95205.59
2022-12-16T01:23:15.870Z,95213.59
2022-12-16T01:25:43.708Z,95208.66
2022-12-16T01:28:11.591Z,95207.41
2022-12-16T01:30:39.510Z,95195.69
2022-12-16T01:33:07.356Z,95173.78
2022-12-16T01:35:55.207Z,95167.72
2022-12-16T01:38:25.468Z,95182.06
2022-12-16T01:40:55.900Z,95175.88
2022-12-16T01:43:26.494Z,95184.88
2022-12-16T01:45:58.149Z,95185.22
2022-12-16T01:48:39.963Z,95179.53
2022-12-16T01:51:11.525Z,95171.66
2022-12-16T01:53:43.902Z,95165.22
2022-12-16T01:56:17.282Z,95164.16
2022-12-16T01:58:47.085Z,95167.28
2022-12-16T02:01:17.556Z,95173.34
2022-12-16T02:03:46.077Z,95179.84
2022-12-16T02:06:13.964Z,95174.13
2022-12-16T02:08:43.123Z,95160.53
2022-12-16T02:11:46.930Z,95163.47
2022-12-16T02:14:30.177Z,95159.28
2022-12-16T02:17:03.057Z,95139.56
2022-12-16T02:20:01.754Z,95128.41
2022-12-16T02:22:38.550Z,95143.47
2022-12-16T02:25:33.849Z,95128.34
2022-12-16T02:28:09.647Z,95139.56
2022-12-16T02:30:49.276Z,95138.88
2022-12-16T02:33:53.145Z,95136.03
2022-12-16T02:36:33.420Z,95002.63
2022-12-16T02:39:06.418Z,95134.25
2022-12-16T02:41:44.278Z,95149.22
2022-12-16T02:44:13.435Z,95158.22
2022-12-16T02:46:44.415Z,95148.66
2022-12-16T02:49:47.637Z,95163.69
2022-12-16T02:52:17.022Z,95114.22
2022-12-16T02:54:45.967Z,95162.47
2022-12-16T02:57:29.635Z,95176.97
2022-12-16T03:00:03.547Z,95199.25
2022-12-16T03:02:39.429Z,95147.13
2022-12-16T03:05:14.202Z,95183.53
2022-12-16T03:07:44.427Z,95184.31
2022-12-16T03:10:16.252Z,95161.31
2022-12-16T03:12:46.937Z,95166.09
2022-12-16T03:15:18.119Z,95155.31
2022-12-16T03:17:49.471Z,95158.94
2022-12-16T03:20:23.468Z,95123.59
2022-12-16T03:22:55.792Z,95129.41
2022-12-16T03:25:24.922Z,95153.38
2022-12-16T03:28:00.389Z,95163.09
2022-12-16T03:30:33.446Z,95157.91
2022-12-16T03:33:05.528Z,95148.16
2022-12-16T03:35:38.086Z,95100.53
2022-12-16T03:38:09.986Z,95085.63
2022-12-16T03:40:39.805Z,95151.16
2022-12-16T03:43:09.084Z,95188.31
2022-12-16T03:45:39.957Z,95175.75
2022-12-16T03:48:11.411Z,95171.09
2022-12-16T03:50:40.626Z,95155.69
2022-12-16T03:53:09.957Z,95169.28
2022-12-16T03:55:37.826Z,95157.53
2022-12-16T03:58:05.676Z,95148.59
2022-12-16T04:00:33.654Z,95165.31
2022-12-16T04:03:01.684Z,95190.81
2022-12-16T04:05:31.080Z,95200.13
2022-12-16T04:08:02.208Z,95186.66
2022-12-16T04:10:44.249Z,95173.63
2022-12-16T04:13:29.903Z,95116.47
2022-12-16T04:16:15.578Z,95173.38
2022-12-16T04:19:01.375Z,95171.63
2022-12-16T04:21:56.367Z,95173.63
2022-12-16T04:24:27.136Z,95047.22
2022-12-16T04:27:15.716Z,95183.84
2022-12-16T04:29:57.868Z,95039.47
2022-12-16T04:32:25.801Z,95172.41
2022-12-16T04:34:52.962Z,95162.31
2022-12-16T04:37:39.721Z,95160.09
2022-12-16T04:40:26.279Z,95177.03
2022-12-16T04:43:11.590Z,95165.88
2022-12-16T04:45:57.927Z,95168.38
2022-12-16T04:48:43.347Z,95150.16
2022-12-16T04:51:28.782Z,95143.88
2022-12-16T04:54:15.580Z,95175.94
2022-12-16T04:57:01.105Z,95168.31
2022-12-16T04:59:46.269Z,95171.72
2022-12-16T05:02:31.575Z,95157.28
2022-12-16T05:05:16.901Z,95164.34
2022-12-16T05:08:02.317Z,95173.22
2022-12-16T05:10:48.810Z,95179.16
2022-12-16T05:13:34.809Z,95157.28
2022-12-16T05:16:20.544Z,95174.19
2022-12-16T05:19:05.720Z,95119.34
2022-12-16T05:21:50.939Z,95179.09
2022-12-16T05:24:36.230Z,95172.72
2022-12-16T05:27:22.818Z,95182.69
2022-12-16T05:30:08.210Z,95198.41
2022-12-16T05:32:53.629Z,95187.16
2022-12-16T05:35:49.451Z,95169.81
2022-12-16T05:38:35.054Z,95207.53
2022-12-16T05:41:20.087Z,95214.88
2022-12-16T05:44:05.908Z,95219.47
2022-12-16T05:46:51.455Z,95225.53
2022-12-16T05:49:36.584Z,95218.63
2022-12-16T05:52:24.520Z,95206.09
2022-12-16T05:55:09.890Z,95178.41
2022-12-16T05:57:55.097Z,95188.91
2022-12-16T06:00:42.136Z,95230.63
2022-12-16T06:03:27.554Z,95220.38
2022-12-16T06:06:13.425Z,95235.28
2022-12-16T06:08:58.844Z,95243.22
2022-12-16T06:11:43.846Z,95259.69
2022-12-16T06:14:29.281Z,95244.50
2022-12-16T06:17:16.298Z,95252.09
2022-12-16T06:20:01.904Z,95256.63
2022-12-16T06:22:47.322Z,95256.75
2022-12-16T06:25:32.635Z,95245.22
2022-12-16T06:28:17.726Z,95265.13
2022-12-16T06:31:03.178Z,95251.38
2022-12-16T06:33:54.630Z,95259.88
2022-12-16T06:36:40.758Z,95231.09
2022-12-16T06:39:26.388Z,95236.09
2022-12-16T06:42:11.531Z,95256.91
2022-12-16T06:44:56.970Z,95227.00
2022-12-16T06:47:42.382Z,95242.34
2022-12-16T06:50:29.452Z,95234.63
2022-12-16T06:53:15.024Z,95244.47
2022-12-16T06:56:00.378Z,95229.75
2022-12-16T06:58:45.773Z,95237.81
2022-12-16T07:01:31.409Z,95220.16
2022-12-16T07:04:16.658Z,95224.63
2022-12-16T07:07:03.510Z,95232.50
2022-12-16T07:09:48.931Z,95251.31
2022-12-16T07:12:34.031Z,95244.38
2022-12-16T07:15:19.433Z,95233.16
2022-12-16T07:18:04.924Z,95247.22
2022-12-16T07:20:50.595Z,95227.25
2022-12-16T07:23:37.506Z,95240.03
2022-12-16T07:26:22.989Z,95259.81
2022-12-16T07:29:08.650Z,95236.56
2022-12-16T07:31:54.123Z,95236.69
2022-12-16T07:37:29.445Z,95262.50
2022-12-16T07:46:05.364Z,95241.94
2022-12-16T07:48:50.569Z,95228.91
2022-12-16T07:51:36.388Z,95236.53
2022-12-16T07:54:21.797Z,95249.78
2022-12-16T07:57:13.761Z,95255.50
2022-12-16T07:59:59.133Z,95238.88
2022-12-16T08:02:44.364Z,95259.16
2022-12-16T08:05:29.959Z,95280.88
2022-12-16T08:08:19.225Z,95257.16
2022-12-16T08:11:04.491Z,95231.16
2022-12-16T08:13:51.142Z,95262.34
2022-12-16T08:16:36.357Z,95267.91
2022-12-16T08:19:21.512Z,95257.38
2022-12-16T08:22:06.888Z,95231.97
2022-12-16T08:24:53.809Z,95268.22
2022-12-16T08:27:41.239Z,95275.56
2022-12-16T08:30:29.194Z,95262.41
2022-12-16T08:33:19.275Z,95122.59
2022-12-16T08:36:05.720Z,95248.13
2022-12-16T08:38:50.954Z,95253.75
2022-12-16T08:41:36.479Z,95252.75
2022-12-16T08:44:21.765Z,95244.34
2022-12-16T08:47:08.633Z,95226.81
2022-12-16T08:49:57.722Z,95211.47
2022-12-16T08:52:47.172Z,95220.94
2022-12-16T08:55:32.385Z,95209.66
2022-12-16T08:58:17.673Z,95204.59
2022-12-16T09:01:07.066Z,95225.19
2022-12-16T09:03:54.635Z,95225.91
2022-12-16T09:06:41.206Z,95212.88
2022-12-16T09:09:27.448Z,95168.97
2022-12-16T09:12:13.005Z,95183.59
2022-12-16T09:15:09.965Z,95188.13
2022-12-16T09:17:55.467Z,95193.63
2022-12-16T09:20:42.737Z,95191.53
2022-12-16T09:23:28.250Z,95110.38
2022-12-16T09:26:13.770Z,95174.56
2022-12-16T09:28:59.001Z,95176.94
2022-12-16T09:31:44.213Z,95150.19
2022-12-16T09:34:29.686Z,95143.50
2022-12-16T09:37:16.574Z,95147.22
2022-12-16T09:40:01.944Z,95133.97
2022-12-16T09:42:55.961Z,95078.84
2022-12-16T09:45:51.265Z,95141.81
2022-12-16T09:48:47.760Z,95145.81
2022-12-16T09:51:33.629Z,95135.25
2022-12-16T09:54:21.804Z,95112.63
2022-12-16T09:57:08.446Z,95139.91
2022-12-16T09:59:59.265Z,95136.22
2022-12-16T10:02:45.276Z,95128.31
2022-12-16T10:05:33.360Z,95150.47
2022-12-16T10:08:25.196Z,95123.16
2022-12-16T10:11:17.658Z,95117.47
2022-12-16T10:14:15.988Z,95122.72
2022-12-16T10:17:10.241Z,95110.59
2022-12-16T10:20:09.930Z,95129.69
2022-12-16T10:23:02.092Z,95089.03
2022-12-16T10:25:54.982Z,95110.03
2022-12-16T10:28:58.158Z,95113.03
2022-12-16T10:31:44.094Z,95106.81
2022-12-16T10:34:32.650Z,95071.44
2022-12-16T10:37:21.150Z,95079.22
2022-12-16T10:40:26.165Z,95049.69
2022-12-16T10:43:22.555Z,95087.06
2022-12-16T10:46:12.435Z,95054.13
2022-12-16T10:48:57.900Z,95085.09
2022-12-16T10:51:47.228Z,95092.28
2022-12-16T10:54:51.848Z,95069.00
2022-12-16T10:57:49.157Z,95074.66
2022-12-16T11:00:37.626Z,95029.22
2022-12-16T11:03:39.737Z,95030.34
2022-12-16T11:06:26.536Z,95080.38
2022-12-16T11:09:12.079Z,95087.28
2022-12-16T11:11:57.443Z,95084.47
2022-12-16T11:15:27.583Z,95071.28
2022-12-16T11:17:50.694Z,95077.59
2022-12-16T11:20:40.179Z,95069.84
2022-12-16T11:23:34.328Z,95036.72
2022-12-16T11:26:36.653Z,95052.41
2022-12-16T11:29:33.682Z,95043.34
2022-12-16T11:32:29.387Z,95053.47
2022-12-16T11:35:17.872Z,95022.69
2022-12-16T11:38:06.542Z,95039.78
2022-12-16T11:40:52.606Z,95057.13
2022-12-16T11:43:38.998Z,95043.28
2022-12-16T11:46:32.135Z,95058.28
2022-12-16T11:49:24.696Z,95032.66
2022-12-16T11:52:36.011Z,95035.88
2022-12-16T11:56:04.596Z,94989.03
2022-12-16T11:58:50.198Z,95032.03
2022-12-16T12:01:44.895Z,95020.72
2022-12-16T12:04:31.901Z,95044.38
2022-12-16T12:07:46.942Z,95023.75
2022-12-16T12:10:56.909Z,95027.75
2022-12-16T12:14:01.281Z,95009.28
2022-12-16T12:16:55.233Z,95002.63
2022-12-16T12:19:50.635Z,95014.19
2022-12-16T12:22:45.614Z,95008.78
2022-12-16T12:25:44.238Z,95000.00
2022-12-16T12:28:41.308Z,95014.41
2022-12-16T12:31:41.864Z,95008.69
2022-12-16T12:34:40.309Z,95007.34
2022-12-16T12:37:34.424Z,95006.34
2022-12-16T12:40:28.829Z,94978.16
2022-12-16T12:43:15.484Z,95006.34
2022-12-16T12:46:17.574Z,94982.63
2022-12-16T12:49:10.392Z,94989.59
2022-12-16T12:52:04.682Z,95015.28
2022-12-16T12:54:55.135Z,94934.25
2022-12-16T12:57:44.500Z,94995.97
2022-12-16T13:00:37.040Z,95002.56
2022-12-16T13:03:31.423Z,94981.94
2022-12-16T13:06:18.919Z,95019.69
2022-12-16T13:09:14.388Z,94995.72
2022-12-16T13:12:41.944Z,94994.59
2022-12-16T13:15:29.382Z,94981.63
2022-12-16T13:18:50.801Z,94993.13
2022-12-16T13:22:03.677Z,94972.00
2022-12-16T13:25:01.172Z,94990.66
2022-12-16T13:27:47.989Z,95020.56
2022-12-16T13:30:42.772Z,94980.03
2022-12-16T13:33:42.242Z,94937.66
2022-12-16T13:36:29.702Z,94996.78
2022-12-16T13:39:20.793Z,94974.44
2022-12-16T13:42:09.205Z,94990.75
2022-12-16T13:45:14.154Z,95026.84
2022-12-16T13:48:19.540Z,95011.06
2022-12-16T13:51:06.911Z,95025.34
2022-12-16T13:53:56.805Z,95014.91
2022-12-16T13:56:47.544Z,94989.56
2022-12-16T13:59:37.107Z,95034.19
2022-12-16T14:02:42.712Z,95005.38
2022-12-16T14:05:36.971Z,95045.88
2022-12-16T14:08:25.343Z,95030.19
2022-12-16T14:11:17.914Z,95024.19
2022-12-16T14:14:11.698Z,94997.03
2022-12-16T14:17:10.161Z,95056.34
2022-12-16T14:20:13.105Z,94992.16
2022-12-16T14:23:14.914Z,95042.78
2022-12-16T14:26:15.923Z,95024.81
2022-12-16T14:29:03.256Z,95063.31
2022-12-16T14:31:54.568Z,95042.06
2022-12-16T14:34:41.427Z,95039.66
2022-12-16T14:37:32.009Z,95062.31
2022-12-16T14:40:17.625Z,95038.78
2022-12-16T14:43:05.305Z,95067.16
2022-12-16T14:45:55.470Z,95046.19
2022-12-16T14:48:49.543Z,95031.78
2022-12-16T14:51:44.305Z,95044.09
2022-12-16T14:54:47.094Z,95048.38
2022-12-16T14:57:35.037Z,95064.03
2022-12-16T15:00:31.712Z,95059.75
2022-12-16T15:03:24.278Z,95045.97
2022-12-16T15:06:12.647Z,95066.66
2022-12-16T15:09:06.818Z,95047.56
2022-12-16T15:11:53.637Z,95052.53
2022-12-16T15:14:45.070Z,95057.06
2022-12-16T15:17:39.623Z,95058.47
2022-12-16T15:20:35.437Z,95055.66
2022-12-16T15:23:22.239Z,95066.66
2022-12-16T15:26:12.706Z,95000.88
2022-12-16T15:29:01.038Z,95033.06
2022-12-16T15:31:51.070Z,95078.47
2022-12-16T15:34:42.976Z,95066.75
2022-12-16T15:37:49.108Z,95063.84
2022-12-16T15:40:42.451Z,95080.44
2022-12-16T15:43:46.886Z,95032.72
2022-12-16T15:46:38.607Z,95074.09
2022-12-16T15:49:33.717Z,95054.81
2022-12-16T15:52:19.281Z,95089.44
2022-12-16T15:55:10.166Z,95097.09
2022-12-16T15:57:57.158Z,95091.44
2022-12-16T16:00:44.872Z,95085.34
2022-12-16T16:03:42.352Z,95105.81
2022-12-16T16:06:36.762Z,95088.56
2022-12-16T16:09:31.898Z,95060.25
2022-12-16T16:12:23.668Z,95106.06
2022-12-16T16:15:10.229Z,95092.00
2022-12-16T16:17:56.647Z,95110.38
2022-12-16T16:20:42.219Z,95095.78
2022-12-16T16:23:28.018Z,95010.63
2022-12-16T16:26:14.188Z,95096.41
2022-12-16T16:28:59.622Z,95087.44
2022-12-16T16:31:46.601Z,95082.94
2022-12-16T16:34:32.137Z,95108.03
2022-12-16T16:37:18.029Z,95114.09
2022-12-16T16:40:03.541Z,95080.47
2022-12-16T16:42:49.434Z,95114.16
2022-12-16T16:45:35.149Z,95106.69
2022-12-16T16:48:28.336Z,95125.84
2022-12-16T16:51:15.602Z,94966.19
2022-12-16T16:54:01.226Z,95108.19
2022-12-16T16:56:49.599Z,95122.84
2022-12-16T16:59:34.707Z,95102.03
2022-12-16T17:02:20.250Z,95096.63
2022-12-16T17:05:07.321Z,95092.03
2022-12-16T17:07:54.159Z,95126.34
2022-12-16T17:10:39.655Z,95111.25
2022-12-16T17:13:24.591Z,95112.28
2022-12-16T17:16:10.133Z,95064.72
2022-12-16T17:18:55.539Z,95088.31
2022-12-16T17:21:42.227Z,95106.88
2022-12-16T17:24:27.776Z,95093.50
2022-12-16T17:27:12.863Z,95095.75
2022-12-16T17:29:58.243Z,95093.72
2022-12-16T17:32:43.714Z,95100.81
2022-12-16T17:35:30.048Z,95051.00
2022-12-16T17:38:17.335Z,95111.59
2022-12-16T17:41:02.607Z,95066.75
2022-12-16T17:43:48.180Z,95096.22
2022-12-16T17:46:33.517Z,95109.34
2022-12-16T17:49:18.954Z,95089.00
2022-12-16T17:52:04.345Z,95097.09
2022-12-16T17:54:50.968Z,95132.53
2022-12-16T17:57:36.405Z,95126.34
2022-12-16T18:00:22.426Z,95110.03
2022-12-16T18:03:08.075Z,95147.91
2022-12-16T18:05:53.895Z,95093.28
2022-12-16T18:08:39.252Z,95126.97
2022-12-16T18:11:25.946Z,95119.06
2022-12-16T18:14:11.446Z,95119.09
2022-12-16T18:16:56.800Z,95112.00
2022-12-16T18:19:42.185Z,95143.09
2022-12-16T18:22:27.496Z,95129.94
2022-12-16T18:25:24.071Z,95097.72
2022-12-16T18:28:11.078Z,95106.91
2022-12-16T18:30:56.634Z,95160.78
2022-12-16T18:33:41.727Z,95081.19
2022-12-16T18:36:27.111Z,95050.19
2022-12-16T18:39:12.481Z,95152.38
2022-12-16T18:42:01.214Z,95079.53
2022-12-16T18:44:47.877Z,95145.44
2022-12-16T18:47:33.303Z,95153.38
2022-12-16T18:50:28.677Z,95163.69
2022-12-16T18:53:17.058Z,95151.22
2022-12-16T18:56:02.341Z,95174.09
2022-12-16T18:58:51.855Z,95129.94
2022-12-16T19:01:38.922Z,95157.19
2022-12-16T19:04:24.271Z,95189.84
2022-12-16T19:07:09.661Z,95096.72
2022-12-16T19:09:55.131Z,95183.59
2022-12-16T19:12:40.481Z,95131.97
2022-12-16T19:15:26.754Z,95157.13
2022-12-16T19:18:13.415Z,95175.06
2022-12-16T19:20:58.866Z,95175.25
2022-12-16T19:23:44.364Z,95171.56
2022-12-16T19:26:29.857Z,95175.78
2022-12-16T19:29:14.979Z,95189.84
2022-12-16T19:32:00.357Z,95213.13
2022-12-16T19:34:52.150Z,95163.56
2022-12-16T19:37:37.713Z,95217.75
2022-12-16T19:40:23.874Z,95203.47
2022-12-16T19:43:11.493Z,95198.91
2022-12-16T19:45:57.073Z,95179.34
2022-12-16T19:48:42.291Z,95179.38
2022-12-16T19:51:29.045Z,95198.38
2022-12-16T19:54:14.292Z,95206.03
2022-12-16T19:56:59.299Z,95212.72
2022-12-16T19:59:44.911Z,95213.25
2022-12-16T20:02:31.206Z,95208.69
2022-12-16T20:05:16.909Z,95130.72
2022-12-16T20:08:06.408Z,95200.88
2022-12-16T20:10:51.941Z,95190.03
2022-12-16T20:13:37.022Z,95209.03
2022-12-16T20:16:23.119Z,95183.72
2022-12-16T20:19:08.502Z,94998.16
2022-12-16T20:21:56.521Z,95182.13
2022-12-16T20:25:01.686Z,95216.97
2022-12-16T20:27:46.981Z,95195.31
2022-12-16T20:30:32.350Z,95208.28
2022-12-16T20:33:17.854Z,95211.78
2022-12-16T20:36:13.801Z,95164.75
2022-12-16T20:38:59.203Z,95212.16
2022-12-16T20:41:45.909Z,95201.75
2022-12-16T20:44:31.321Z,95131.97
2022-12-16T20:47:16.913Z,95200.16
2022-12-16T20:50:02.361Z,95183.88
2022-12-16T20:52:47.782Z,95205.38
2022-12-16T20:55:33.063Z,95181.72
2022-12-16T20:58:19.858Z,95187.28
2022-12-16T21:01:10.364Z,95200.72
2022-12-16T21:07:02.798Z,95153.81
2022-12-16T21:09:47.995Z,95191.97
2022-12-16T21:12:33.434Z,95207.00
2022-12-16T21:15:20.396Z,95180.66
2022-12-16T21:18:05.911Z,95145.00
2022-12-16T21:21:02.938Z,95208.34
2022-12-16T21:23:48.650Z,95214.63
2022-12-16T21:26:34.025Z,95210.25
2022-12-16T21:29:19.153Z,95221.44
2022-12-16T21:32:05.944Z,95170.91
2022-12-16T21:34:51.821Z,95176.13
2022-12-16T21:37:37.663Z,95199.50
2022-12-16T21:40:23.651Z,95199.19
2022-12-16T21:43:09.060Z,95139.34
2022-12-16T21:49:01.354Z,95205.66
2022-12-16T21:51:46.782Z,95187.81
2022-12-16T21:54:32.263Z,95184.00
2022-12-16T21:57:17.700Z,95204.22
2022-12-16T22:00:03.214Z,95206.75
2022-12-16T22:02:59.863Z,95207.06
2022-12-16T22:05:48.567Z,95192.41
2022-12-16T22:08:34.007Z,95177.06
2022-12-16T22:11:26.529Z,95173.31
2022-12-16T22:14:11.728Z,95131.59
2022-12-16T22:16:57.184Z,95159.69
2022-12-16T22:19:42.939Z,95212.13
2022-12-16T22:22:29.871Z,95188.44
2022-12-16T22:25:15.330Z,95204.22
2022-12-16T22:28:00.754Z,95169.50
2022-12-16T22:30:46.206Z,95185.91
2022-12-16T22:33:31.458Z,95181.78
2022-12-16T22:36:18.854Z,95165.22
2022-12-16T22:39:05.567Z,95191.91
2022-12-16T22:41:50.209Z,95145.66
2022-12-16T22:44:35.613Z,95195.56
2022-12-16T22:47:21.017Z,95139.50
2022-12-16T22:50:06.301Z,95175.03
2022-12-16T22:52:52.000Z,95172.34
2022-12-16T22:55:38.753Z,95176.13
2022-12-16T22:58:28.190Z,95190.81
2022-12-16T23:01:13.863Z,95050.59
2022-12-16T23:03:59.340Z,95166.16
2022-12-16T23:06:44.712Z,95161.94
2022-12-16T23:09:30.247Z,95163.50
2022-12-16T23:12:17.082Z,95165.38
2022-12-16T23:15:02.394Z,95103.63
2022-12-16T23:17:47.569Z,95173.38
2022-12-16T23:20:33.044Z,95152.88
2022-12-16T23:23:19.089Z,95156.38
2022-12-16T23:26:20.059Z,95154.66
2022-12-16T23:29:10.322Z,95173.66
2022-12-16T23:31:56.542Z,95068.88
2022-12-16T23:32:31.380Z,95196.53
2022-12-16T23:34:45.795Z,95138.19
2022-12-16T23:37:31.387Z,95130.94
2022-12-16T23:40:16.603Z,95129.81
2022-12-16T23:43:01.191Z,95121.13
2022-12-16T23:45:48.059Z,95132.13
2022-12-16T23:48:33.732Z,95139.69
2022-12-16T23:51:19.161Z,95112.94
2022-12-16T23:54:05.577Z,95109.13
2022-12-16T23:56:51.040Z,95105.06
2022-12-16T23:59:36.394Z,95109.97
